Terminal Aerodrome Forecast
Issued by NWS

Home | Current Version | Previous Version | Text Only | Print | Product List | Glossary On
Versions: 1 2 3 4 5 6 7 8 9 10 11 12 13 14 15 16 17 18 19 20 21 22 23 24 25 26 27 28 29 30 31 32 33 34 35 36 37 38 39 40
000
FTUS46 KEKA 031756
TAFCEC
TAF
KCEC 031756Z 0318/0418 29006KT 4SM BR OVC008
     FM031900 29006KT P6SM BKN012
     FM032300 30008KT P6SM SCT015
     FM040100 30006KT P6SM BKN012
     FM040400 17004KT 6SM BR BKN010
     FM040800 18003KT 4SM BR OVC006
     FM041400 28005KT 6SM BR OVC008=

USA.gov is the U.S. government's official web portal to all federal, state and local government web resources and services.